Time;durP1;ratioP1;P1;durP2;ratioP2;P2;SDS_P1;SDS_P2;PMS_P1;PMS_P2;Temp;Humidity;BMP_temperature;BMP_pressure;BME280_temperature;BME280_humidity;BME280_pressure;Samples;Min_cycle;Max_cycle;Signal;HPM_P1;HPM_P2
2021/01/18 00:02:11;;;;;;;17.62;8.40;;;;;;;-12.88;56.04;99295.04;1670402;84;21177;-71
2021/01/18 00:04:40;;;;;;;19.37;9.43;;;;;;;-12.96;56.14;99288.73;1694266;83;21309;-71
2021/01/18 00:07:07;;;;;;;17.67;8.63;;;;;;;-13.02;56.19;99291.30;1707310;84;21604;-71
2021/01/18 00:09:36;;;;;;;17.82;9.15;;;;;;;-13.08;56.32;99295.17;1704868;84;21212;-71
2021/01/18 00:12:05;;;;;;;19.57;9.88;;;;;;;-13.13;56.59;99301.59;1720560;83;21634;-71
2021/01/18 00:14:33;;;;;;;24.95;9.98;;;;;;;-13.15;56.78;99295.63;1717771;82;21692;-71
2021/01/18 00:17:07;;;;;;;19.65;8.90;;;;;;;-13.15;57.08;99303.70;1717475;82;21125;-71
2021/01/18 00:19:35;;;;;;;;;;;;;;;-13.08;57.00;99307.91;1747990;81;21177;-71
2021/01/18 00:22:03;;;;;;;16.02;7.40;;;;;;;-13.09;57.03;99295.61;1710934;81;20238;-71
2021/01/18 00:24:31;;;;;;;15.93;7.67;;;;;;;-13.06;57.01;99298.55;1742654;81;21595;-71
2021/01/18 00:26:59;;;;;;;16.45;8.35;;;;;;;-13.02;56.94;99300.66;1698280;84;21224;-71
2021/01/18 00:29:27;;;;;;;16.15;7.47;;;;;;;-13.02;56.54;99309.13;1716187;83;21656;-71
2021/01/18 00:31:54;;;;;;;16.82;8.50;;;;;;;-13.10;56.43;99304.09;1746440;82;21184;-71
2021/01/18 00:34:22;;;;;;;15.95;7.60;;;;;;;-13.15;56.53;99303.27;1742723;81;21311;-71
2021/01/18 00:36:51;;;;;;;17.55;8.58;;;;;;;-13.18;56.10;99310.11;1742793;81;21159;-71
2021/01/18 00:39:18;;;;;;;15.08;7.55;;;;;;;-13.29;56.13;99315.26;1736655;81;21187;-71
2021/01/18 00:41:46;;;;;;;18.73;8.90;;;;;;;-13.39;56.09;99311.09;1736123;81;21595;-71
2021/01/18 00:44:14;;;;;;;15.10;7.08;;;;;;;-13.47;56.38;99311.57;1739731;81;21139;-71
2021/01/18 00:46:46;;;;;;;18.32;9.38;;;;;;;-13.47;56.50;99302.67;1670150;84;21188;-71
2021/01/18 00:49:14;;;;;;;;;;;;;;;-13.47;56.33;99302.67;1701372;83;21148;-72
2021/01/18 00:51:41;;;;;;;18.27;8.08;;;;;;;-13.45;56.37;99304.34;1743815;81;20167;-71
2021/01/18 00:54:09;;;;;;;17.07;7.85;;;;;;;-13.48;56.31;99304.38;1746959;81;21184;-72
2021/01/18 00:56:39;;;;;;;17.70;8.43;;;;;;;-13.52;56.30;99298.45;1737570;81;21572;-71
2021/01/18 00:59:08;;;;;;;23.27;9.80;;;;;;;-13.57;56.45;99306.53;1741756;81;21178;-72
2021/01/18 01:01:41;;;;;;;21.23;9.98;;;;;;;-13.59;56.71;99306.97;1693260;84;21593;-71
2021/01/18 01:04:09;;;;;;;21.05;10.75;;;;;;;-13.63;56.83;99304.02;1689043;84;21624;-72
2021/01/18 01:06:37;;;;;;;22.22;10.45;;;;;;;-13.70;56.83;99304.46;1744935;81;21612;-71
2021/01/18 01:09:05;;;;;;;22.80;11.93;;;;;;;-13.72;57.16;99297.70;1671026;84;21184;-71
2021/01/18 01:11:33;;;;;;;18.95;9.13;;;;;;;-13.81;57.08;99299.02;1712983;82;21247;-71
2021/01/18 01:14:01;;;;;;;25.77;12.37;;;;;;;-13.87;57.48;99301.16;1743957;81;21581;-70
2021/01/18 01:16:29;;;;;;;17.73;8.63;;;;;;;-13.85;57.50;99297.34;1716954;82;21197;-71
2021/01/18 01:18:57;;;;;;;23.90;10.23;;;;;;;-13.80;57.76;99296.88;1717907;82;21125;-71
2021/01/18 01:21:25;;;;;;;24.65;10.20;;;;;;;-13.74;57.50;99304.06;1747513;82;21192;-71
2021/01/18 01:23:53;;;;;;;23.45;10.38;;;;;;;-13.72;57.35;99301.52;1746062;81;21580;-71
2021/01/18 01:26:22;;;;;;;20.20;9.65;;;;;;;-13.75;57.19;99309.15;1740951;81;21331;-71
2021/01/18 01:28:49;;;;;;;22.98;10.25;;;;;;;-13.84;57.46;99318.92;1741833;81;21184;-71
2021/01/18 01:31:17;;;;;;;24.70;10.48;;;;;;;-13.86;57.54;99310.45;1743045;81;21164;-71
2021/01/18 01:33:46;;;;;;;20.62;9.25;;;;;;;-13.88;57.72;99311.73;1699490;81;21207;-71
2021/01/18 01:36:14;;;;;;;22.80;10.05;;;;;;;-13.85;57.91;99312.59;1743673;82;21216;-71
2021/01/18 01:38:42;;;;;;;15.38;7.83;;;;;;;-13.82;57.61;99304.94;1746506;81;21302;-71
2021/01/18 01:41:10;;;;;;;21.60;9.38;;;;;;;-13.88;57.47;99302.83;1706213;82;21167;-71
2021/01/18 01:43:38;;;;;;;15.08;8.13;;;;;;;-13.91;57.63;99302.86;1747813;82;21188;-71
2021/01/18 01:46:08;;;;;;;17.05;8.65;;;;;;;-13.87;57.59;99308.78;1742530;81;21271;-72
2021/01/18 01:48:36;;;;;;;18.40;9.25;;;;;;;-13.88;57.62;99304.09;1722577;82;21655;-71
2021/01/18 01:51:05;;;;;;;19.12;9.48;;;;;;;-13.90;57.43;99292.25;1747285;81;21592;-71
2021/01/18 01:53:33;;;;;;;16.32;8.53;;;;;;;-13.97;57.41;99297.80;1739271;81;21619;-71
2021/01/18 01:56:00;;;;;;;18.30;8.23;;;;;;;-13.99;57.51;99289.74;1739716;81;21326;-71
2021/01/18 01:58:28;;;;;;;18.77;8.83;;;;;;;-14.02;57.23;99285.96;1716767;82;21172;-71
2021/01/18 02:00:58;;;;;;;17.42;8.65;;;;;;;-14.07;57.41;99282.15;1718748;82;21193;-71
2021/01/18 02:03:41;;;;;;;18.65;8.58;;;;;;;-14.08;57.40;99286.83;1746846;81;21298;-71
2021/01/18 02:06:09;;;;;;;20.00;8.33;;;;;;;-14.14;57.25;99289.37;1746689;81;21322;-71
2021/01/18 02:08:37;;;;;;;16.40;8.15;;;;;;;-14.30;57.25;99284.33;1746558;81;21315;-71
2021/01/18 02:11:06;;;;;;;16.73;8.05;;;;;;;-14.41;57.35;99294.94;1737776;81;21165;-71
2021/01/18 02:13:52;;;;;;;19.60;8.85;;;;;;;-14.48;57.81;99300.87;1745084;81;21208;-71
2021/01/18 02:16:30;;;;;;;16.12;7.53;;;;;;;-14.51;58.06;99294.52;1745472;82;21295;-71
2021/01/18 02:19:48;;;;;;;19.70;9.05;;;;;;;-14.50;58.09;99283.09;1709729;82;21588;-70
2021/01/18 02:22:46;;;;;;;18.15;9.18;;;;;;;-14.53;57.83;99295.81;1738478;81;21147;-70
2021/01/18 02:25:43;;;;;;;16.87;7.97;;;;;;;-14.63;57.97;99293.31;1739508;82;21149;-71
2021/01/18 02:28:29;;;;;;;17.50;7.78;;;;;;;-14.70;58.45;99299.67;1745761;81;21179;-70
2021/01/18 02:31:28;;;;;;;14.28;7.60;;;;;;;-14.70;58.62;99292.06;1741485;81;21151;-70
2021/01/18 02:34:50;;;;;;;18.00;7.75;;;;;;;-14.75;58.49;99288.67;1746316;81;21164;-71
2021/01/18 02:37:58;;;;;;;19.25;8.33;;;;;;;-14.83;58.40;99297.96;1711043;82;21155;-71
2021/01/18 02:40:34;;;;;;;18.90;8.38;;;;;;;-14.88;58.76;99299.68;1718166;83;21247;-73
2021/01/18 02:43:05;;;;;;;18.15;7.97;;;;;;;-14.86;58.78;99305.59;1670503;84;21176;-70
2021/01/18 02:45:34;;;;;;;;;;;;;;;-14.88;58.81;99303.05;1682926;84;21172;-73
2021/01/18 02:48:02;;;;;;;13.72;7.60;;;;;;;-14.83;59.14;99307.28;1656579;84;20134;-71
2021/01/18 02:50:32;;;;;;;17.80;8.50;;;;;;;-14.80;58.93;99306.86;1708349;84;21184;-71
2021/01/18 02:53:00;;;;;;;18.25;8.58;;;;;;;-14.87;58.76;99302.63;1715762;82;21585;-71
2021/01/18 02:55:29;;;;;;;17.27;8.40;;;;;;;-14.97;58.79;99307.29;1708041;82;21188;-71
2021/01/18 02:58:01;;;;;;;17.67;7.78;;;;;;;-15.00;59.05;99307.28;1748587;82;21185;-71
2021/01/18 03:00:37;;;;;;;18.52;9.63;;;;;;;-15.05;58.98;99309.39;1745948;81;21577;-70
2021/01/18 03:03:32;;;;;;;19.02;8.80;;;;;;;-15.08;59.02;99309.81;1741063;81;21627;-70
2021/01/18 03:06:48;;;;;;;17.20;8.10;;;;;;;-15.02;59.21;99314.05;1810606;78;23130;-71
2021/01/18 03:09:20;;;;;;;21.30;9.35;;;;;;;-15.11;59.33;99320.81;1762556;81;21148;-71
2021/01/18 03:11:50;;;;;;;17.50;8.10;;;;;;;-15.16;59.57;99322.49;1732023;83;21184;-71
2021/01/18 03:14:29;;;;;;;19.33;8.60;;;;;;;-15.16;59.27;99315.31;1697169;83;21228;-71
2021/01/18 03:16:58;;;;;;;18.73;8.53;;;;;;;-15.24;59.16;99314.00;1717694;82;21330;-71
2021/01/18 03:19:43;;;;;;;22.20;9.25;;;;;;;-15.26;59.55;99320.77;1708118;82;21175;-71
2021/01/18 03:22:13;;;;;;;18.77;9.13;;;;;;;-15.24;59.42;99315.27;1730343;81;21333;-72
2021/01/18 03:24:41;;;;;;;21.82;9.53;;;;;;;-15.26;59.51;99320.77;1710055;81;21238;-71
2021/01/18 03:27:09;;;;;;;19.47;9.17;;;;;;;-15.25;59.41;99318.66;1751273;81;21199;-71
2021/01/18 03:29:36;;;;;;;18.40;9.65;;;;;;;-15.29;59.25;99328.39;1733957;81;21179;-70
2021/01/18 03:32:06;;;;;;;20.02;9.25;;;;;;;-15.33;59.36;99326.70;1742814;81;21176;-71
2021/01/18 03:34:34;;;;;;;20.87;9.87;;;;;;;-15.32;59.67;99324.56;1699216;83;21594;-72
2021/01/18 03:37:02;;;;;;;19.27;9.23;;;;;;;-15.29;59.56;99329.66;1734177;81;21171;-71
2021/01/18 03:39:31;;;;;;;17.73;9.18;;;;;;;-15.33;59.35;99330.07;1750050;81;21325;-72
2021/01/18 03:41:58;;;;;;;18.02;8.65;;;;;;;-15.39;59.44;99335.14;1726943;83;21215;-71
2021/01/18 03:44:27;;;;;;;18.45;8.73;;;;;;;-15.39;59.80;99335.14;1731237;83;21195;-71
2021/01/18 03:46:55;;;;;;;18.57;9.13;;;;;;;-15.36;59.73;99325.41;1721553;83;21615;-72
2021/01/18 03:49:23;;;;;;;16.87;8.27;;;;;;;-15.37;59.47;99324.97;1722916;83;21329;-71
2021/01/18 03:51:51;;;;;;;19.60;9.77;;;;;;;-15.44;59.42;99323.69;1694344;83;21598;-71
2021/01/18 03:54:18;;;;;;;18.05;8.38;;;;;;;-15.48;59.52;99325.80;1694404;83;21337;-71
2021/01/18 03:56:47;;;;;;;19.40;8.90;;;;;;;-15.47;59.85;99328.75;1715975;83;21182;-71
2021/01/18 03:59:16;;;;;;;20.73;8.53;;;;;;;-15.45;59.84;99324.95;1713500;83;21321;-71
2021/01/18 04:01:44;;;;;;;18.33;9.03;;;;;;;-15.48;59.60;99327.07;1717377;83;21595;-71
2021/01/18 04:04:12;;;;;;;16.70;8.33;;;;;;;-15.52;59.47;99324.11;1722987;83;21567;-71
2021/01/18 04:06:40;;;;;;;18.30;8.58;;;;;;;-15.58;59.84;99317.73;1723162;83;21159;-71
2021/01/18 04:09:07;;;;;;;18.07;8.00;;;;;;;-15.52;59.93;99319.43;1714025;83;21151;-71
2021/01/18 04:11:36;;;;;;;17.12;8.05;;;;;;;-15.51;59.75;99317.34;1717992;83;21191;-71
2021/01/18 04:14:05;;;;;;;16.63;8.73;;;;;;;-15.51;59.64;99318.61;1716689;82;21208;-71
2021/01/18 04:16:40;;;;;;;18.15;8.65;;;;;;;-15.49;59.90;99319.02;1718125;83;21199;-71
2021/01/18 04:19:08;;;;;;;13.80;7.75;;;;;;;-15.46;59.53;99319.47;1691414;83;21563;-71
2021/01/18 04:21:37;;;;;;;16.10;8.37;;;;;;;-15.48;59.69;99311.86;1722161;82;21179;-72
2021/01/18 04:24:06;;;;;;;20.55;9.53;;;;;;;-15.48;59.58;99314.39;1723090;82;21587;-72
2021/01/18 04:26:39;;;;;;;17.57;8.53;;;;;;;-15.51;59.42;99314.37;1723138;83;21183;-71
2021/01/18 04:29:06;;;;;;;23.22;9.63;;;;;;;-15.50;59.66;99322.42;1723366;83;21179;-72
2021/01/18 04:31:41;;;;;;;18.83;8.60;;;;;;;-15.52;59.37;99327.91;1720038;83;21167;-71
2021/01/18 04:34:09;;;;;;;17.73;9.30;;;;;;;-15.63;59.22;99328.30;1691461;83;21176;-72
2021/01/18 04:36:40;;;;;;;17.93;9.13;;;;;;;-15.68;59.70;99328.27;1715280;83;21621;-71
2021/01/18 04:39:09;;;;;;;20.77;10.30;;;;;;;-15.67;59.91;99319.83;1711846;83;21203;-71
2021/01/18 04:41:42;;;;;;;17.62;9.13;;;;;;;-15.64;59.82;99324.89;1735672;82;21339;-70
2021/01/18 04:44:14;;;;;;;18.10;8.73;;;;;;;-15.60;59.77;99325.75;1739124;81;21171;-71
2021/01/18 04:46:45;;;;;;;14.40;8.20;;;;;;;-15.64;59.56;99327.86;1740730;81;21147;-71
2021/01/18 04:49:14;;;;;;;19.83;9.70;;;;;;;-15.64;60.02;99334.20;1726554;82;21160;-71
2021/01/18 04:51:50;;;;;;;20.20;8.97;;;;;;;-15.61;59.95;99330.81;1731760;81;21176;-71
2021/01/18 04:54:21;;;;;;;19.07;9.10;;;;;;;-15.59;59.59;99334.23;1742306;81;21182;-71
2021/01/18 04:57:15;;;;;;;18.10;9.50;;;;;;;-15.62;59.69;99345.62;1738850;81;21326;-71
2021/01/18 04:59:48;;;;;;;17.97;9.77;;;;;;;-15.66;59.77;99344.75;1753078;82;21557;-71
2021/01/18 05:02:21;;;;;;;19.40;9.47;;;;;;;-15.63;60.09;99343.51;1753339;82;21302;-71
2021/01/18 05:04:53;;;;;;;19.83;9.37;;;;;;;-15.63;59.86;99342.24;1750297;81;21188;-71
2021/01/18 05:07:42;;;;;;;20.97;8.63;;;;;;;-15.62;59.70;99338.84;1714314;82;21333;-71
2021/01/18 05:10:12;;;;;;;17.23;9.10;;;;;;;-15.66;59.55;99347.29;1735349;81;21194;-71
2021/01/18 05:12:42;;;;;;;17.20;8.47;;;;;;;-15.68;59.69;99352.34;1707837;81;21164;-71
2021/01/18 05:15:11;;;;;;;20.77;10.40;;;;;;;-15.75;59.59;99350.66;1721931;82;21180;-71
2021/01/18 05:17:42;;;;;;;22.17;9.77;;;;;;;-15.84;59.79;99363.28;1739934;81;21157;-71
2021/01/18 05:20:15;;;;;;;15.27;8.80;;;;;;;-15.95;60.16;99361.98;1705540;82;21168;-71
2021/01/18 05:22:48;;;;;;;20.97;9.70;;;;;;;-15.95;60.46;99360.72;1731767;81;21183;-71
2021/01/18 05:25:17;;;;;;;;;;;;;;;-15.90;60.30;99364.10;1749386;82;21189;-71
2021/01/18 05:28:09;;;;;;;17.20;8.83;;;;;;;-15.89;60.05;99367.08;1734289;81;20122;-72
2021/01/18 05:30:43;;;;;;;15.80;8.07;;;;;;;-15.88;60.26;99382.70;1735617;81;21621;-72
2021/01/18 05:33:14;;;;;;;16.20;8.30;;;;;;;-15.87;59.93;99372.16;1752572;82;21203;-72
2021/01/18 05:35:49;;;;;;;20.50;8.47;;;;;;;-15.93;59.82;99380.58;1731017;81;21297;-72
2021/01/18 05:38:17;;;;;;;17.57;8.63;;;;;;;-15.91;60.30;99374.26;1728635;81;21232;-72
2021/01/18 05:40:50;;;;;;;19.93;8.50;;;;;;;-15.87;60.04;99386.09;1732263;81;21739;-72
2021/01/18 05:43:19;;;;;;;20.40;9.83;;;;;;;-15.86;60.05;99379.78;1731293;81;21754;-73
2021/01/18 05:45:47;;;;;;;18.80;9.00;;;;;;;-15.79;60.03;99383.17;1728521;82;21143;-74
2021/01/18 05:48:26;;;;;;;18.90;8.93;;;;;;;-15.80;59.66;99382.77;1746006;81;21194;-72
2021/01/18 05:50:59;;;;;;;20.20;9.33;;;;;;;-15.80;60.07;99392.03;1753631;82;21318;-71
2021/01/18 05:53:32;;;;;;;20.03;8.73;;;;;;;-15.76;59.86;99390.80;1727032;82;21580;-72
2021/01/18 05:56:17;;;;;;;19.70;9.30;;;;;;;-15.73;59.78;99400.09;1737353;81;21175;-72
2021/01/18 05:58:46;;;;;;;16.90;8.27;;;;;;;-15.69;59.50;99398.84;1712969;81;21189;-71
2021/01/18 06:01:14;;;;;;;15.60;8.30;;;;;;;-15.69;59.53;99405.57;1735519;81;21719;-71
2021/01/18 06:03:43;;;;;;;18.90;8.53;;;;;;;-15.66;59.34;99408.13;1702014;82;21245;-73
2021/01/18 06:06:11;;;;;;;19.40;9.47;;;;;;;-15.66;59.24;99402.63;1751977;82;21184;-71
2021/01/18 06:08:53;;;;;;;20.00;9.50;;;;;;;-15.63;59.30;99405.63;1717567;81;21160;-71
2021/01/18 06:11:24;;;;;;;17.60;9.15;;;;;;;-15.58;59.37;99407.73;1721248;82;21350;-71
2021/01/18 06:14:00;;;;;;;19.90;9.13;;;;;;;-15.48;59.45;99412.02;1744228;81;21624;-72
2021/01/18 06:16:29;;;;;;;22.10;9.47;;;;;;;-15.34;59.47;99415.03;1739788;81;21190;-72
2021/01/18 06:19:09;;;;;;;23.32;11.03;;;;;;;-15.16;59.28;99420.17;1735971;81;21219;-72
2021/01/18 06:21:40;;;;;;;21.35;9.55;;;;;;;-15.00;59.17;99412.59;1741761;81;21156;-71
2021/01/18 06:24:17;;;;;;;25.25;11.85;;;;;;;-14.72;59.01;99404.17;1747453;81;21620;-71
2021/01/18 06:26:46;;;;;;;18.27;9.30;;;;;;;-14.39;58.61;99405.02;1740550;81;21167;-72
2021/01/18 06:29:41;;;;;;;27.07;11.73;;;;;;;-13.97;58.15;99405.84;1752252;82;21172;-72
2021/01/18 06:32:12;;;;;;;20.45;9.78;;;;;;;-13.70;57.32;99410.44;1738457;81;21179;-71
2021/01/18 06:34:42;;;;;;;24.60;11.20;;;;;;;-13.46;56.47;99406.98;1714243;82;21120;-70
2021/01/18 06:37:20;;;;;;;22.60;10.68;;;;;;;-13.29;56.09;99408.15;1747279;81;21751;-71
2021/01/18 06:39:48;;;;;;;25.97;12.50;;;;;;;-13.14;55.65;99414.87;1740492;81;21159;-72
2021/01/18 06:42:20;;;;;;;23.73;11.30;;;;;;;-13.05;55.16;99412.28;1714517;82;21310;-72
2021/01/18 06:44:48;;;;;;;28.75;13.55;;;;;;;-12.96;54.93;99414.78;1736065;81;21168;-72
2021/01/18 06:47:32;;;;;;;23.20;12.10;;;;;;;-12.85;54.71;99414.69;1743516;81;21187;-73
2021/01/18 06:50:04;;;;;;;27.55;13.20;;;;;;;-12.64;54.69;99417.56;1717896;82;21144;-72
2021/01/18 06:52:36;;;;;;;27.45;14.20;;;;;;;-12.26;54.28;99427.89;1705266;82;21291;-72
2021/01/18 06:55:12;;;;;;;26.40;12.82;;;;;;;-12.01;53.52;99419.59;1736388;81;21164;-72
2021/01/18 06:58:13;;;;;;;31.62;15.45;;;;;;;-11.83;53.06;99424.09;1708353;82;21286;-72
2021/01/18 07:00:41;;;;;;;28.80;13.80;;;;;;;-11.67;52.79;99430.70;1676107;85;21305;-73
2021/01/18 07:03:40;;;;;;;28.32;14.58;;;;;;;-11.40;52.28;99435.13;1687296;82;21172;-73
2021/01/18 07:06:33;;;;;;;32.73;15.50;;;;;;;-11.21;51.58;99434.03;1744185;82;21168;-72
2021/01/18 07:09:07;;;;;;;28.27;15.18;;;;;;;-11.00;51.38;99432.08;1753504;82;21213;-72
2021/01/18 07:11:38;;;;;;;30.32;16.02;;;;;;;-10.74;50.96;99436.84;1716639;82;21722;-72
2021/01/18 07:14:10;;;;;;;31.55;16.55;;;;;;;-10.52;50.24;99442.50;1752665;81;21611;-72
2021/01/18 07:16:41;;;;;;;30.72;15.20;;;;;;;-10.32;50.03;99439.65;1743274;81;21322;-72
2021/01/18 07:19:10;;;;;;;31.00;18.25;;;;;;;-10.09;49.54;99440.52;1745473;81;21179;-73
2021/01/18 07:21:48;;;;;;;41.25;22.42;;;;;;;-9.89;49.07;99441.89;1728612;81;21321;-72
2021/01/18 07:24:17;;;;;;;36.45;19.85;;;;;;;-9.75;48.54;99446.34;1724321;81;21313;-73
2021/01/18 07:26:53;;;;;;;32.65;18.12;;;;;;;-9.55;48.04;99440.88;1742758;81;21290;-72
2021/01/18 07:29:26;;;;;;;34.33;17.67;;;;;;;-9.33;47.83;99440.45;1747261;82;21595;-72
2021/01/18 07:31:56;;;;;;;31.45;16.60;;;;;;;-9.01;47.38;99441.95;1739436;81;21815;-72
2021/01/18 07:34:26;;;;;;;32.85;16.50;;;;;;;-8.57;46.93;99438.47;1693856;82;21289;-72
2021/01/18 07:37:07;;;;;;;30.37;16.10;;;;;;;-8.22;46.02;99443.59;1714894;82;21160;-71
2021/01/18 07:39:38;;;;;;;31.93;17.07;;;;;;;-7.93;45.24;99442.48;1752538;82;21588;-71
2021/01/18 07:42:35;;;;;;;38.75;18.20;;;;;;;-7.66;44.68;99439.67;1741987;81;21612;-71
2021/01/18 07:45:13;;;;;;;32.13;17.07;;;;;;;-7.32;43.96;99440.05;1714452;83;21294;-73
2021/01/18 07:51:00;;;;;;;36.20;18.45;;;;;;;-6.45;42.79;99440.09;1794712;78;22607;-73
2021/01/18 07:53:30;;;;;;;36.15;19.37;;;;;;;-6.07;41.59;99442.35;1785013;80;21171;-72
2021/01/18 07:56:04;;;;;;;36.70;19.60;;;;;;;-5.89;41.37;99445.59;1723229;83;21183;-72
2021/01/18 07:58:31;;;;;;;37.00;21.80;;;;;;;-5.63;40.59;99451.58;1734273;81;21583;-72
2021/01/18 08:01:07;;;;;;;36.80;20.57;;;;;;;-5.49;40.37;99451.97;1743036;81;21613;-73
2021/01/18 08:03:35;;;;;;;37.40;21.23;;;;;;;-5.24;39.00;99452.85;1745285;81;21192;-75
2021/01/18 08:06:09;;;;;;;36.17;20.23;;;;;;;-5.31;38.29;99457.37;1726045;83;21643;-75
2021/01/18 08:08:37;;;;;;;34.15;19.45;;;;;;;-5.29;38.91;99453.03;1728349;81;21148;-73
2021/01/18 08:11:17;;;;;;;35.43;18.95;;;;;;;-5.16;38.62;99459.42;1723081;83;21170;-77
2021/01/18 08:13:55;;;;;;;35.90;21.15;;;;;;;-4.96;37.95;99469.01;1734065;83;21210;-75
2021/01/18 08:16:29;;;;;;;31.85;18.90;;;;;;;-4.74;38.00;99463.08;1727366;81;21191;-74
2021/01/18 08:19:20;;;;;;;32.13;17.65;;;;;;;-4.47;37.51;99462.92;1714749;83;21306;-75
2021/01/18 08:22:00;;;;;;;32.38;19.48;;;;;;;-4.24;36.85;99459.02;1745387;81;21156;-72
2021/01/18 08:24:35;;;;;;;35.38;19.92;;;;;;;-4.13;36.53;99456.02;1726802;82;21168;-74
2021/01/18 08:27:05;;;;;;;32.00;17.77;;;;;;;-4.12;36.31;99455.09;1731156;82;21172;-76
2021/01/18 08:29:53;;;;;;;33.95;18.02;;;;;;;-3.91;36.04;99464.58;1713621;82;21180;-73
2021/01/18 08:35:49;;;;;;;27.50;16.35;;;;;;;-3.60;34.95;99467.19;1802619;78;23377;-71
2021/01/18 08:38:23;;;;;;;29.32;16.05;;;;;;;-3.53;35.02;99468.61;1773800;80;21318;-71
2021/01/18 08:41:07;;;;;;;28.32;17.48;;;;;;;-3.09;34.80;99462.44;1769588;80;21349;-72
2021/01/18 08:43:51;;;;;;;29.05;16.85;;;;;;;-2.67;33.88;99457.55;1774133;80;21188;-73
2021/01/18 08:46:39;;;;;;;32.53;18.60;;;;;;;-2.40;33.31;99456.72;1763661;80;21670;-72
2021/01/18 08:49:31;;;;;;;30.43;17.60;;;;;;;-2.15;32.90;99457.72;1783244;80;21309;-72
2021/01/18 08:51:58;;;;;;;30.00;18.27;;;;;;;-1.74;31.82;99450.59;1796504;80;21600;-71
2021/01/18 08:54:37;;;;;;;31.73;17.55;;;;;;;-1.47;31.78;99441.90;1747244;80;21305;-71
2021/01/18 08:57:23;;;;;;;27.60;16.85;;;;;;;-1.05;31.19;99445.34;1764031;80;21162;-71
2021/01/18 09:00:05;;;;;;;27.50;17.25;;;;;;;-0.70;30.42;99443.91;1789871;80;21198;-71
2021/01/18 09:02:32;;;;;;;27.93;16.97;;;;;;;-0.41;29.93;99438.91;1778168;80;21285;-71
2021/01/18 09:05:21;;;;;;;28.92;17.77;;;;;;;-0.12;29.54;99440.34;1780654;80;21595;-71
2021/01/18 09:07:50;;;;;;;24.92;16.20;;;;;;;0.15;29.00;99436.18;1790831;80;21158;-67
2021/01/18 09:10:22;;;;;;;27.62;17.35;;;;;;;0.17;27.96;99443.91;1783912;80;21100;-68
2021/01/18 09:12:50;;;;;;;25.77;15.83;;;;;;;0.14;28.25;99439.70;1796660;80;21588;-69
2021/01/18 09:15:20;;;;;;;24.57;16.55;;;;;;;0.57;27.43;99437.67;1778317;80;21172;-69
2021/01/18 09:17:48;;;;;;;26.65;16.07;;;;;;;0.85;27.34;99428.22;1769440;80;21764;-70
2021/01/18 09:20:16;;;;;;;25.48;16.55;;;;;;;1.13;27.12;99422.17;1770732;80;21373;-71
2021/01/18 09:22:44;;;;;;;28.95;17.98;;;;;;;1.31;26.88;99431.89;1746654;81;21186;-70
2021/01/18 09:25:15;;;;;;;27.62;17.32;;;;;;;1.19;26.81;99428.30;1749184;81;21193;-69
2021/01/18 09:27:43;;;;;;;25.43;17.27;;;;;;;1.06;26.55;99422.99;1750410;81;21199;-67
2021/01/18 09:30:17;;;;;;;28.77;16.75;;;;;;;1.09;26.23;99417.61;1688176;83;21116;-66
2021/01/18 09:32:57;;;;;;;26.45;17.15;;;;;;;1.16;26.31;99412.40;1710365;82;21284;-71
2021/01/18 09:35:27;;;;;;;27.90;16.80;;;;;;;1.40;26.26;99407.05;1714283;83;21164;-70
2021/01/18 09:37:54;;;;;;;25.17;17.05;;;;;;;1.49;26.00;99414.28;1710456;83;21212;-69
2021/01/18 09:40:26;;;;;;;27.75;17.57;;;;;;;1.82;25.62;99411.78;1708079;83;21119;-74
2021/01/18 09:42:55;;;;;;;24.85;17.30;;;;;;;2.12;25.09;99403.24;1732392;82;21369;-73
2021/01/18 09:45:23;;;;;;;26.77;18.07;;;;;;;2.39;25.19;99395.81;1685653;84;21220;-73
2021/01/18 09:47:53;;;;;;;29.75;19.02;;;;;;;2.74;24.51;99393.91;1741310;81;21151;-74
2021/01/18 09:50:22;;;;;;;27.67;17.62;;;;;;;3.19;24.31;99390.34;1745337;81;21143;-70
2021/01/18 09:52:51;;;;;;;29.90;18.75;;;;;;;3.62;23.30;99391.19;1762107;81;21741;-72
2021/01/18 09:55:29;;;;;;;30.17;19.10;;;;;;;3.75;23.39;99389.02;1716180;81;21210;-81
2021/01/18 09:58:11;;;;;;;30.45;18.95;;;;;;;3.99;22.51;99393.75;1702405;83;21260;-71
2021/01/18 10:00:42;;;;;;;31.60;19.77;;;;;;;3.63;23.07;99390.27;1729795;81;21214;-73
2021/01/18 10:03:12;;;;;;;28.92;18.98;;;;;;;3.69;22.99;99396.34;1687597;84;21179;-72
2021/01/18 10:05:41;;;;;;;25.05;17.25;;;;;;;3.90;23.23;99389.19;1720209;83;21601;-70
2021/01/18 10:08:15;;;;;;;29.20;17.82;;;;;;;4.19;22.37;99394.04;1687127;83;21169;-72
2021/01/18 10:10:50;;;;;;;27.22;17.55;;;;;;;4.27;22.54;99386.47;1730534;83;21193;-67
2021/01/18 10:13:23;;;;;;;25.95;17.42;;;;;;;4.53;22.50;99394.16;1726262;81;22153;-74
2021/01/18 10:15:50;;;;;;;25.77;16.57;;;;;;;4.74;21.92;99391.67;1706458;83;21239;-77
2021/01/18 10:18:38;;;;;;;27.27;17.40;;;;;;;4.57;21.08;99399.51;1730822;81;22447;-77
2021/01/18 10:21:06;;;;;;;30.88;18.35;;;;;;;4.24;22.04;99390.13;1703127;82;21219;-67
2021/01/18 10:23:37;;;;;;;29.18;18.00;;;;;;;4.37;21.61;99386.61;1739063;81;21183;-68
2021/01/18 10:26:20;;;;;;;29.98;18.50;;;;;;;4.32;21.23;99384.34;1717530;81;21319;-71
2021/01/18 10:29:00;;;;;;;26.17;16.87;;;;;;;4.38;20.77;99383.87;1719724;82;21162;-69
2021/01/18 10:31:30;;;;;;;26.62;17.55;;;;;;;4.38;20.77;99383.87;1705413;81;21172;-75
2021/01/18 10:34:28;;;;;;;24.70;16.75;;;;;;;4.06;21.84;99392.36;1747996;81;21237;-74
2021/01/18 10:36:57;;;;;;;26.10;17.55;;;;;;;4.27;21.48;99387.78;1723206;83;21641;-72
2021/01/18 10:39:34;;;;;;;24.72;17.23;;;;;;;4.59;21.59;99388.44;1697585;83;21204;-73
2021/01/18 10:42:13;;;;;;;29.35;18.65;;;;;;;4.93;21.37;99385.84;1738244;81;21318;-72
2021/01/18 10:44:52;;;;;;;29.18;18.45;;;;;;;5.01;21.17;99380.82;1729964;82;21698;-68
2021/01/18 10:47:27;;;;;;;30.15;19.65;;;;;;;4.99;20.82;99384.90;1737534;81;21210;-71
2021/01/18 10:49:58;;;;;;;28.85;18.67;;;;;;;4.91;21.33;99382.50;1748430;81;21215;-74
2021/01/18 10:52:42;;;;;;;24.67;18.77;;;;;;;4.91;21.58;99382.50;1750796;81;21261;-71
2021/01/18 10:55:13;;;;;;;30.80;19.37;;;;;;;4.80;21.38;99392.02;1717905;81;21188;-69
2021/01/18 10:57:45;;;;;;;29.18;18.75;;;;;;;4.39;21.38;99380.30;1672628;83;21199;-69
2021/01/18 11:00:20;;;;;;;26.80;19.45;;;;;;;3.68;22.15;99385.99;1707095;83;21180;-69
2021/01/18 11:03:04;;;;;;;28.45;19.60;;;;;;;2.85;22.63;99388.77;1703401;82;21680;-71
2021/01/18 11:05:39;;;;;;;28.87;18.85;;;;;;;2.28;23.21;99383.95;1747949;81;21762;-76
2021/01/18 11:08:08;;;;;;;26.60;18.70;;;;;;;1.89;23.66;99384.34;1725941;81;21632;-72
2021/01/18 11:10:42;;;;;;;27.90;18.80;;;;;;;1.42;24.09;99392.14;1753195;81;21195;-76
2021/01/18 11:13:14;;;;;;;27.27;18.27;;;;;;;1.08;24.97;99387.75;1704285;82;21200;-67
2021/01/18 11:15:44;;;;;;;30.08;19.57;;;;;;;1.13;25.35;99391.73;1693676;83;21188;-70
2021/01/18 11:18:12;;;;;;;26.20;18.35;;;;;;;1.04;25.42;99387.09;1728948;83;21640;-68
2021/01/18 11:20:41;;;;;;;27.55;17.92;;;;;;;0.84;25.61;99385.73;1712607;82;21202;-77
2021/01/18 11:23:09;;;;;;;28.07;17.82;;;;;;;0.18;25.70;99379.24;1697839;82;21200;-70
2021/01/18 11:25:37;;;;;;;27.30;17.52;;;;;;;-0.40;26.57;99380.81;1744185;81;21636;-64
2021/01/18 11:28:13;;;;;;;25.20;15.98;;;;;;;-0.90;27.21;99381.36;1729132;81;21184;-65
2021/01/18 11:30:41;;;;;;;25.55;17.05;;;;;;;-1.31;27.93;99375.34;1704160;82;21207;-65
2021/01/18 11:33:09;;;;;;;26.25;17.17;;;;;;;-1.81;28.02;99384.79;1657861;84;21164;-73
2021/01/18 11:35:41;;;;;;;28.85;17.20;;;;;;;-2.35;29.06;99384.83;1722749;82;21153;-62
2021/01/18 11:38:09;;;;;;;25.62;15.95;;;;;;;-2.66;29.65;99391.08;1711253;83;21216;-62
2021/01/18 11:40:37;;;;;;;29.20;17.48;;;;;;;-2.96;30.07;99387.23;1713747;83;21167;-66
2021/01/18 11:43:05;;;;;;;28.57;16.70;;;;;;;-3.32;30.76;99392.31;1697283;83;21208;-66
2021/01/18 11:45:36;;;;;;;28.83;16.93;;;;;;;-3.65;31.34;99386.86;1694636;84;21204;-65
2021/01/18 11:48:06;;;;;;;27.27;15.35;;;;;;;-4.11;32.28;99390.47;1695377;83;21653;-72
2021/01/18 11:50:35;;;;;;;26.57;16.82;;;;;;;-4.44;32.84;99389.25;1707482;83;21188;-69
2021/01/18 11:53:02;;;;;;;28.00;16.90;;;;;;;-4.89;33.45;99387.92;1704120;83;21596;-67
2021/01/18 11:55:30;;;;;;;29.75;16.23;;;;;;;-5.18;34.39;99385.58;1694156;83;21176;-63